LPE2107 SPJC-SPST
Flight info
| Callsign | LPE2107 |
|---|---|
| Flight time | N/A |
| Altitude | 33000 |
| Route | SPJC/16L EVSUR2 AMVEX UL305 ENPAP ENPAP1B SPST/35 |
| Aircraft | A320/M-SDFGHIRWY/LB1 |
Departure
| Time | 2026-05-06 23:20 |
|---|---|
| Airport | Jorge Chávez International Airport (SPJC) |
Arrival
| Time | N/A |
|---|---|
| Airport | Cadete FAP Guillermo Del Castillo Paredes Airport (SPST) |
| Time | Latitude | Longitude | Altitude | Speed | Heading |
|---|---|---|---|---|---|
| 2026-05-06 23:20 | -12.06712 | -76.87878 | 9040 ft | 292 kts | 49° |
| 2026-05-06 23:20 | -12.05076 | -76.86695 | 9123 ft | 295 kts | 21° |
| 2026-05-06 23:21 | -12.03031 | -76.86386 | 9226 ft | 303 kts | 354° |
| 2026-05-06 23:21 | -12.01008 | -76.87042 | 9716 ft | 308 kts | 333° |
| 2026-05-06 23:21 | -11.99136 | -76.88072 | 10370 ft | 305 kts | 332° |
| 2026-05-06 23:21 | -11.97225 | -76.89126 | 10815 ft | 315 kts | 333° |
| 2026-05-06 23:22 | -11.95271 | -76.90185 | 11143 ft | 328 kts | 333° |
| 2026-05-06 23:22 | -11.93228 | -76.91279 | 11564 ft | 334 kts | 333° |
| 2026-05-06 23:22 | -11.91147 | -76.92385 | 11938 ft | 336 kts | 333° |
| 2026-05-06 23:22 | -11.89064 | -76.93490 | 12166 ft | 337 kts | 333° |
| 2026-05-06 23:23 | -11.86993 | -76.94583 | 12054 ft | 335 kts | 334° |
| 2026-05-06 23:23 | -11.84833 | -76.95550 | 12124 ft | 335 kts | 340° |
| 2026-05-06 23:23 | -11.82618 | -76.96272 | 12251 ft | 341 kts | 346° |
| 2026-05-06 23:23 | -11.80283 | -76.96880 | 12823 ft | 341 kts | 347° |
| 2026-05-06 23:24 | -11.77993 | -76.97459 | 13311 ft | 341 kts | 347° |
| 2026-05-06 23:24 | -11.75682 | -76.98043 | 13787 ft | 343 kts | 347° |
| 2026-05-06 23:24 | -11.73377 | -76.98628 | 14300 ft | 344 kts | 347° |
| 2026-05-06 23:24 | -11.71014 | -76.99229 | 14730 ft | 346 kts | 347° |
| 2026-05-06 23:25 | -11.68669 | -76.99828 | 15210 ft | 348 kts | 347° |
| 2026-05-06 23:25 | -11.66316 | -77.00429 | 15698 ft | 350 kts | 347° |
| 2026-05-06 23:25 | -11.63964 | -77.01030 | 16118 ft | 352 kts | 347° |
| 2026-05-06 23:25 | -11.61576 | -77.01640 | 16532 ft | 353 kts | 347° |
| 2026-05-06 23:26 | -11.59183 | -77.02253 | 17095 ft | 355 kts | 347° |
| 2026-05-06 23:26 | -11.56779 | -77.02869 | 17483 ft | 357 kts | 347° |
| 2026-05-06 23:26 | -11.54361 | -77.03486 | 17861 ft | 359 kts | 347° |
| 2026-05-06 23:26 | -11.51916 | -77.04110 | 18308 ft | 361 kts | 347° |
| 2026-05-06 23:27 | -11.49479 | -77.04733 | 18747 ft | 363 kts | 347° |
| 2026-05-06 23:27 | -11.47019 | -77.05362 | 19154 ft | 365 kts | 347° |
| 2026-05-06 23:27 | -11.44529 | -77.05997 | 19594 ft | 366 kts | 346° |
| 2026-05-06 23:27 | -11.42078 | -77.06622 | 19993 ft | 368 kts | 346° |
| 2026-05-06 23:28 | -11.39555 | -77.07267 | 20428 ft | 370 kts | 347° |
| 2026-05-06 23:28 | -11.37069 | -77.07902 | 20829 ft | 372 kts | 346° |
| 2026-05-06 23:28 | -11.34504 | -77.08349 | 21201 ft | 374 kts | 359° |
| 2026-05-06 23:28 | -11.31920 | -77.08041 | 21562 ft | 374 kts | 16° |
| 2026-05-06 23:29 | -11.29495 | -77.07011 | 21957 ft | 375 kts | 27° |